sensor_id;sensor_type;location;lat;lon;timestamp;pressure;altitude;pressure_sealevel;temperature;humidity
46778;BME280;32536;47.128;8.746;2023-02-12T00:00:45;93215.25;;;3.43;50.82
46778;BME280;32536;47.128;8.746;2023-02-12T00:03:12;93216.22;;;3.38;51.04
46778;BME280;32536;47.128;8.746;2023-02-12T00:05:39;93220.47;;;3.30;51.05
46778;BME280;32536;47.128;8.746;2023-02-12T00:08:07;93218.47;;;3.27;50.77
46778;BME280;32536;47.128;8.746;2023-02-12T00:10:40;93217.22;;;3.25;51.06
46778;BME280;32536;47.128;8.746;2023-02-12T00:13:11;93216.13;;;3.26;51.08
46778;BME280;32536;47.128;8.746;2023-02-12T00:15:39;93213.03;;;3.24;51.22
46778;BME280;32536;47.128;8.746;2023-02-12T00:18:07;93219.75;;;3.21;51.33
46778;BME280;32536;47.128;8.746;2023-02-12T00:20:36;93216.63;;;3.19;51.22
46778;BME280;32536;47.128;8.746;2023-02-12T00:23:04;93217.72;;;3.18;51.59
46778;BME280;32536;47.128;8.746;2023-02-12T00:25:32;93211.16;;;3.24;51.63
46778;BME280;32536;47.128;8.746;2023-02-12T00:27:59;93204.09;;;3.28;51.35
46778;BME280;32536;47.128;8.746;2023-02-12T00:30:26;93203.00;;;3.29;51.04
46778;BME280;32536;47.128;8.746;2023-02-12T00:32:52;93194.16;;;3.25;51.10
46778;BME280;32536;47.128;8.746;2023-02-12T00:35:19;93192.66;;;3.15;50.92
46778;BME280;32536;47.128;8.746;2023-02-12T00:37:46;93191.75;;;3.02;51.54
46778;BME280;32536;47.128;8.746;2023-02-12T00:40:13;93189.63;;;2.96;51.48
46778;BME280;32536;47.128;8.746;2023-02-12T00:43:13;93185.56;;;2.98;50.03
46778;BME280;32536;47.128;8.746;2023-02-12T00:45:40;93191.13;;;3.06;50.58
46778;BME280;32536;47.128;8.746;2023-02-12T00:48:07;93198.28;;;3.05;50.88
46778;BME280;32536;47.128;8.746;2023-02-12T00:50:33;93197.72;;;2.99;51.10
46778;BME280;32536;47.128;8.746;2023-02-12T00:53:00;93202.38;;;2.94;51.43
46778;BME280;32536;47.128;8.746;2023-02-12T00:55:27;93199.28;;;2.92;51.65
46778;BME280;32536;47.128;8.746;2023-02-12T00:57:53;93196.00;;;2.95;51.83
46778;BME280;32536;47.128;8.746;2023-02-12T01:00:20;93203.44;;;3.01;51.26
46778;BME280;32536;47.128;8.746;2023-02-12T01:02:47;93206.88;;;3.02;50.80
46778;BME280;32536;47.128;8.746;2023-02-12T01:05:14;93212.94;;;3.02;50.70
46778;BME280;32536;47.128;8.746;2023-02-12T01:07:41;93212.66;;;3.04;50.84
46778;BME280;32536;47.128;8.746;2023-02-12T01:10:08;93211.22;;;3.07;50.99
46778;BME280;32536;47.128;8.746;2023-02-12T01:12:35;93214.97;;;3.06;51.00
46778;BME280;32536;47.128;8.746;2023-02-12T01:15:01;93208.88;;;3.05;50.90
46778;BME280;32536;47.128;8.746;2023-02-12T01:17:28;93202.34;;;3.02;50.43
46778;BME280;32536;47.128;8.746;2023-02-12T01:19:56;93198.66;;;2.95;50.99
46778;BME280;32536;47.128;8.746;2023-02-12T01:22:24;93206.78;;;2.90;51.11
46778;BME280;32536;47.128;8.746;2023-02-12T01:24:51;93208.34;;;2.91;50.84
46778;BME280;32536;47.128;8.746;2023-02-12T01:27:18;93200.06;;;2.92;50.54
46778;BME280;32536;47.128;8.746;2023-02-12T01:29:44;93198.84;;;2.90;50.33
46778;BME280;32536;47.128;8.746;2023-02-12T01:32:11;93194.16;;;2.86;50.51
46778;BME280;32536;47.128;8.746;2023-02-12T01:34:38;93190.94;;;2.81;50.92
46778;BME280;32536;47.128;8.746;2023-02-12T01:37:05;93193.28;;;2.74;50.92
46778;BME280;32536;47.128;8.746;2023-02-12T01:39:31;93198.88;;;2.72;50.76
46778;BME280;32536;47.128;8.746;2023-02-12T01:41:59;93189.22;;;2.76;50.88
46778;BME280;32536;47.128;8.746;2023-02-12T01:44:28;93190.47;;;2.79;50.95
46778;BME280;32536;47.128;8.746;2023-02-12T01:47:04;93188.13;;;2.77;49.86
46778;BME280;32536;47.128;8.746;2023-02-12T01:52:24;93184.22;;;2.75;46.55
46778;BME280;32536;47.128;8.746;2023-02-12T01:54:55;93187.19;;;2.73;49.91
46778;BME280;32536;47.128;8.746;2023-02-12T01:57:27;93189.25;;;2.67;49.94
46778;BME280;32536;47.128;8.746;2023-02-12T01:59:57;93194.09;;;2.65;50.35
46778;BME280;32536;47.128;8.746;2023-02-12T02:02:26;93188.78;;;2.65;50.70
46778;BME280;32536;47.128;8.746;2023-02-12T02:04:59;93188.16;;;2.60;50.23
46778;BME280;32536;47.128;8.746;2023-02-12T02:07:28;93188.50;;;2.58;50.56
46778;BME280;32536;47.128;8.746;2023-02-12T02:09:56;93193.63;;;2.54;50.60
46778;BME280;32536;47.128;8.746;2023-02-12T02:12:24;93193.34;;;2.47;51.33
46778;BME280;32536;47.128;8.746;2023-02-12T02:15:10;93195.69;;;2.40;50.99
46778;BME280;32536;47.128;8.746;2023-02-12T02:17:50;93191.50;;;2.30;51.04
46778;BME280;32536;47.128;8.746;2023-02-12T02:29:19;93165.19;;;2.43;48.88
46778;BME280;32536;47.128;8.746;2023-02-12T02:31:55;93166.25;;;2.42;49.51
46778;BME280;32536;47.128;8.746;2023-02-12T02:34:39;93168.00;;;2.37;49.75
46778;BME280;32536;47.128;8.746;2023-02-12T02:37:25;93157.75;;;2.36;49.96
46778;BME280;32536;47.128;8.746;2023-02-12T02:40:10;93156.00;;;2.40;50.12
46778;BME280;32536;47.128;8.746;2023-02-12T02:45:59;93164.88;;;2.44;50.43
46778;BME280;32536;47.128;8.746;2023-02-12T02:48:59;93161.91;;;2.46;50.62
46778;BME280;32536;47.128;8.746;2023-02-12T02:51:32;93166.13;;;2.38;50.18
46778;BME280;32536;47.128;8.746;2023-02-12T02:54:09;93156.50;;;2.24;50.76
46778;BME280;32536;47.128;8.746;2023-02-12T02:56:46;93161.97;;;2.11;51.29
46778;BME280;32536;47.128;8.746;2023-02-12T02:59:23;93159.19;;;2.07;50.60
46778;BME280;32536;47.128;8.746;2023-02-12T03:01:58;93156.06;;;2.14;50.90
46778;BME280;32536;47.128;8.746;2023-02-12T03:04:31;93162.09;;;2.23;50.84
46778;BME280;32536;47.128;8.746;2023-02-12T03:07:16;93159.63;;;2.27;49.43
46778;BME280;32536;47.128;8.746;2023-02-12T03:10:01;93151.84;;;2.30;49.89
46778;BME280;32536;47.128;8.746;2023-02-12T03:12:47;93151.69;;;2.27;49.99
46778;BME280;32536;47.128;8.746;2023-02-12T03:15:45;93145.66;;;2.17;50.01
46778;BME280;32536;47.128;8.746;2023-02-12T03:18:18;93145.66;;;2.08;50.62
46778;BME280;32536;47.128;8.746;2023-02-12T03:21:00;93137.13;;;2.03;51.35
46778;BME280;32536;47.128;8.746;2023-02-12T03:23:36;93145.66;;;2.00;51.16
46778;BME280;32536;47.128;8.746;2023-02-12T03:26:15;93145.03;;;2.03;50.63
46778;BME280;32536;47.128;8.746;2023-02-12T03:28:51;93143.16;;;2.12;51.27
46778;BME280;32536;47.128;8.746;2023-02-12T03:39:44;93137.06;;;2.29;50.74
46778;BME280;32536;47.128;8.746;2023-02-12T03:42:32;93140.34;;;2.26;50.14
46778;BME280;32536;47.128;8.746;2023-02-12T03:45:08;93136.31;;;2.20;50.86
46778;BME280;32536;47.128;8.746;2023-02-12T03:47:50;93143.00;;;2.17;51.18
46778;BME280;32536;47.128;8.746;2023-02-12T03:50:37;93144.84;;;2.17;50.11
46778;BME280;32536;47.128;8.746;2023-02-12T03:53:11;93145.00;;;2.20;51.16
46778;BME280;32536;47.128;8.746;2023-02-12T03:55:44;93141.13;;;2.18;50.39
46778;BME280;32536;47.128;8.746;2023-02-12T03:58:18;93141.75;;;2.15;49.83
46778;BME280;32536;47.128;8.746;2023-02-12T04:00:49;93145.94;;;2.16;50.47
46778;BME280;32536;47.128;8.746;2023-02-12T04:03:16;93132.72;;;2.16;50.47
46778;BME280;32536;47.128;8.746;2023-02-12T04:05:43;93136.16;;;2.16;50.15
46778;BME280;32536;47.128;8.746;2023-02-12T04:08:11;93134.28;;;2.17;50.01
46778;BME280;32536;47.128;8.746;2023-02-12T04:11:13;93133.81;;;2.15;49.00
46778;BME280;32536;47.128;8.746;2023-02-12T04:14:14;93134.47;;;2.12;49.76
46778;BME280;32536;47.128;8.746;2023-02-12T04:17:08;93140.97;;;2.14;50.16
46778;BME280;32536;47.128;8.746;2023-02-12T04:22:40;93139.41;;;2.13;49.16
46778;BME280;32536;47.128;8.746;2023-02-12T04:31:07;93138.66;;;2.13;50.79
46778;BME280;32536;47.128;8.746;2023-02-12T04:33:55;93137.72;;;2.17;50.65
46778;BME280;32536;47.128;8.746;2023-02-12T04:36:55;93140.97;;;2.23;50.06
46778;BME280;32536;47.128;8.746;2023-02-12T04:39:26;93137.38;;;2.28;50.81
46778;BME280;32536;47.128;8.746;2023-02-12T04:41:59;93133.78;;;2.32;50.29
46778;BME280;32536;47.128;8.746;2023-02-12T04:44:32;93142.63;;;2.36;49.82
46778;BME280;32536;47.128;8.746;2023-02-12T04:47:02;93148.88;;;2.40;50.38
46778;BME280;32536;47.128;8.746;2023-02-12T04:49:29;93143.88;;;2.39;50.61
46778;BME280;32536;47.128;8.746;2023-02-12T04:51:56;93145.28;;;2.36;50.30
46778;BME280;32536;47.128;8.746;2023-02-12T04:54:23;93142.97;;;2.35;50.35
46778;BME280;32536;47.128;8.746;2023-02-12T04:56:50;93144.38;;;2.32;50.27
46778;BME280;32536;47.128;8.746;2023-02-12T04:59:17;93145.59;;;2.35;50.46
46778;BME280;32536;47.128;8.746;2023-02-12T05:01:44;93142.16;;;2.34;49.99
46778;BME280;32536;47.128;8.746;2023-02-12T05:04:14;93148.25;;;2.35;50.00
46778;BME280;32536;47.128;8.746;2023-02-12T05:06:42;93148.88;;;2.32;49.98
46778;BME280;32536;47.128;8.746;2023-02-12T05:09:14;93145.34;;;2.19;48.79
46778;BME280;32536;47.128;8.746;2023-02-12T05:11:42;93152.97;;;2.03;49.67
46778;BME280;32536;47.128;8.746;2023-02-12T05:14:09;93150.31;;;1.94;50.41
46778;BME280;32536;47.128;8.746;2023-02-12T05:16:36;93153.44;;;1.87;50.63
46778;BME280;32536;47.128;8.746;2023-02-12T05:19:03;93152.53;;;1.83;50.31
46778;BME280;32536;47.128;8.746;2023-02-12T05:21:30;93147.69;;;1.85;50.32
46778;BME280;32536;47.128;8.746;2023-02-12T05:23:57;93148.16;;;1.87;50.33
46778;BME280;32536;47.128;8.746;2023-02-12T05:26:24;93147.56;;;1.90;50.46
46778;BME280;32536;47.128;8.746;2023-02-12T05:28:51;93149.72;;;1.88;50.58
46778;BME280;32536;47.128;8.746;2023-02-12T05:31:18;93148.47;;;1.86;50.86
46778;BME280;32536;47.128;8.746;2023-02-12T05:33:48;93161.06;;;1.89;50.67
46778;BME280;32536;47.128;8.746;2023-02-12T05:36:17;93158.25;;;1.94;50.72
46778;BME280;32536;47.128;8.746;2023-02-12T05:38:46;93164.16;;;2.00;50.86
46778;BME280;32536;47.128;8.746;2023-02-12T05:41:16;93165.25;;;1.99;50.55
46778;BME280;32536;47.128;8.746;2023-02-12T05:43:47;93161.53;;;2.00;50.94
46778;BME280;32536;47.128;8.746;2023-02-12T05:46:14;93161.19;;;2.01;50.71
46778;BME280;32536;47.128;8.746;2023-02-12T05:48:42;93162.00;;;2.02;50.27
46778;BME280;32536;47.128;8.746;2023-02-12T05:51:10;93157.31;;;1.99;50.19
46778;BME280;32536;47.128;8.746;2023-02-12T05:53:39;93158.56;;;1.92;50.32
46778;BME280;32536;47.128;8.746;2023-02-12T05:58:42;93155.31;;;1.78;50.34
46778;BME280;32536;47.128;8.746;2023-02-12T06:01:16;93147.84;;;1.71;50.11
46778;BME280;32536;47.128;8.746;2023-02-12T06:03:44;93150.03;;;1.60;50.03
46778;BME280;32536;47.128;8.746;2023-02-12T06:06:11;93145.50;;;1.52;50.29
46778;BME280;32536;47.128;8.746;2023-02-12T06:08:39;93138.06;;;1.54;50.12
46778;BME280;32536;47.128;8.746;2023-02-12T06:11:09;93139.94;;;1.54;50.08
46778;BME280;32536;47.128;8.746;2023-02-12T06:13:38;93141.19;;;1.56;50.48
46778;BME280;32536;47.128;8.746;2023-02-12T06:16:05;93148.47;;;1.59;50.13
46778;BME280;32536;47.128;8.746;2023-02-12T06:18:34;93142.59;;;1.54;50.53
46778;BME280;32536;47.128;8.746;2023-02-12T06:21:04;93156.06;;;1.52;50.72
46778;BME280;32536;47.128;8.746;2023-02-12T06:23:31;93156.22;;;1.47;50.90
46778;BME280;32536;47.128;8.746;2023-02-12T06:25:58;93151.09;;;1.42;51.24
46778;BME280;32536;47.128;8.746;2023-02-12T06:28:24;93147.84;;;1.45;51.36
46778;BME280;32536;47.128;8.746;2023-02-12T06:30:51;93149.22;;;1.51;51.47
46778;BME280;32536;47.128;8.746;2023-02-12T06:33:18;93148.16;;;1.61;51.33
46778;BME280;32536;47.128;8.746;2023-02-12T06:35:45;93151.59;;;1.70;51.27
46778;BME280;32536;47.128;8.746;2023-02-12T06:38:12;93146.63;;;1.78;50.77
46778;BME280;32536;47.128;8.746;2023-02-12T06:40:38;93148.78;;;1.84;51.33
46778;BME280;32536;47.128;8.746;2023-02-12T06:43:36;93146.75;;;1.81;50.16
46778;BME280;32536;47.128;8.746;2023-02-12T06:46:04;93147.38;;;1.78;51.10
46778;BME280;32536;47.128;8.746;2023-02-12T06:48:31;93140.25;;;1.70;51.37
46778;BME280;32536;47.128;8.746;2023-02-12T06:53:35;93142.88;;;1.70;51.70
46778;BME280;32536;47.128;8.746;2023-02-12T06:56:03;93140.84;;;1.75;51.47
46778;BME280;32536;47.128;8.746;2023-02-12T06:58:36;93144.56;;;1.74;51.66
46778;BME280;32536;47.128;8.746;2023-02-12T07:03:39;93153.13;;;1.71;51.37
46778;BME280;32536;47.128;8.746;2023-02-12T07:06:07;93147.22;;;1.74;51.65
46778;BME280;32536;47.128;8.746;2023-02-12T07:08:35;93140.56;;;1.77;51.30
46778;BME280;32536;47.128;8.746;2023-02-12T07:11:03;93138.03;;;1.81;51.90
46778;BME280;32536;47.128;8.746;2023-02-12T07:13:30;93139.94;;;1.80;51.58
46778;BME280;32536;47.128;8.746;2023-02-12T07:16:17;93139.31;;;1.83;50.70
46778;BME280;32536;47.128;8.746;2023-02-12T07:18:44;93141.31;;;1.95;51.33
46778;BME280;32536;47.128;8.746;2023-02-12T07:21:13;93143.50;;;2.02;51.05
46778;BME280;32536;47.128;8.746;2023-02-12T07:23:45;93147.03;;;2.06;50.79
46778;BME280;32536;47.128;8.746;2023-02-12T07:26:13;93143.47;;;2.11;51.45
46778;BME280;32536;47.128;8.746;2023-02-12T07:28:40;93141.31;;;2.13;51.02
46778;BME280;32536;47.128;8.746;2023-02-12T07:31:13;93137.72;;;2.17;50.64
46778;BME280;32536;47.128;8.746;2023-02-12T07:33:44;93142.38;;;2.20;50.94
46778;BME280;32536;47.128;8.746;2023-02-12T07:36:14;93139.09;;;2.23;51.20
46778;BME280;32536;47.128;8.746;2023-02-12T07:38:42;93129.75;;;2.26;51.56
46778;BME280;32536;47.128;8.746;2023-02-12T07:41:17;93136.75;;;2.31;50.66
46778;BME280;32536;47.128;8.746;2023-02-12T07:43:47;93131.59;;;2.34;51.20
46778;BME280;32536;47.128;8.746;2023-02-12T07:46:22;93135.31;;;2.42;51.07
46778;BME280;32536;47.128;8.746;2023-02-12T07:48:55;93127.53;;;2.46;51.01
46778;BME280;32536;47.128;8.746;2023-02-12T07:51:23;93135.78;;;2.44;51.29
46778;BME280;32536;47.128;8.746;2023-02-12T07:53:51;93139.19;;;2.45;51.13
46778;BME280;32536;47.128;8.746;2023-02-12T07:56:21;93136.56;;;2.45;51.19
46778;BME280;32536;47.128;8.746;2023-02-12T07:58:50;93137.78;;;2.47;51.41
46778;BME280;32536;47.128;8.746;2023-02-12T08:01:34;93136.56;;;2.45;49.79
46778;BME280;32536;47.128;8.746;2023-02-12T08:04:08;93141.09;;;2.44;49.84
46778;BME280;32536;47.128;8.746;2023-02-12T08:06:43;93140.28;;;2.44;50.82
46778;BME280;32536;47.128;8.746;2023-02-12T08:09:17;93134.84;;;2.40;49.99
46778;BME280;32536;47.128;8.746;2023-02-12T08:11:48;93139.09;;;2.32;50.43
46778;BME280;32536;47.128;8.746;2023-02-12T08:14:18;93146.09;;;2.19;50.41
46778;BME280;32536;47.128;8.746;2023-02-12T08:16:47;93145.19;;;2.15;50.87
46778;BME280;32536;47.128;8.746;2023-02-12T08:19:14;93149.53;;;2.11;50.41
46778;BME280;32536;47.128;8.746;2023-02-12T08:21:42;93148.75;;;2.11;50.83
46778;BME280;32536;47.128;8.746;2023-02-12T08:24:09;93139.41;;;2.13;50.87
46778;BME280;32536;47.128;8.746;2023-02-12T08:26:37;93152.78;;;2.17;50.79
46778;BME280;32536;47.128;8.746;2023-02-12T08:29:14;93162.44;;;2.21;50.72
46778;BME280;32536;47.128;8.746;2023-02-12T08:31:45;93151.69;;;2.27;50.89
46778;BME280;32536;47.128;8.746;2023-02-12T08:34:22;93149.50;;;2.29;50.53
46778;BME280;32536;47.128;8.746;2023-02-12T08:36:51;93148.28;;;2.26;50.52
46778;BME280;32536;47.128;8.746;2023-02-12T08:39:19;93156.06;;;2.22;50.69
46778;BME280;32536;47.128;8.746;2023-02-12T08:41:47;93154.03;;;2.19;51.06
46778;BME280;32536;47.128;8.746;2023-02-12T08:44:15;93157.31;;;2.16;51.35
46778;BME280;32536;47.128;8.746;2023-02-12T08:46:48;93150.78;;;2.14;50.80
46778;BME280;32536;47.128;8.746;2023-02-12T08:49:19;93156.84;;;2.14;51.25
46778;BME280;32536;47.128;8.746;2023-02-12T08:51:51;93158.72;;;2.14;50.95
46778;BME280;32536;47.128;8.746;2023-02-12T08:54:22;93156.22;;;2.08;50.73
46778;BME280;32536;47.128;8.746;2023-02-12T08:56:54;93156.22;;;2.08;50.91
46778;BME280;32536;47.128;8.746;2023-02-12T08:59:22;93152.34;;;2.06;51.30
46778;BME280;32536;47.128;8.746;2023-02-12T09:01:50;93158.41;;;2.06;51.29
46778;BME280;32536;47.128;8.746;2023-02-12T09:04:21;93158.56;;;2.10;51.48
46778;BME280;32536;47.128;8.746;2023-02-12T09:06:50;93153.13;;;2.15;51.75
46778;BME280;32536;47.128;8.746;2023-02-12T09:09:17;93152.63;;;2.22;51.54
46778;BME280;32536;47.128;8.746;2023-02-12T09:11:44;93140.34;;;2.26;51.81
46778;BME280;32536;47.128;8.746;2023-02-12T09:14:14;93147.00;;;2.32;51.47
46778;BME280;32536;47.128;8.746;2023-02-12T09:16:43;93141.22;;;2.39;51.48
46778;BME280;32536;47.128;8.746;2023-02-12T09:19:12;93138.88;;;2.46;51.65
46778;BME280;32536;47.128;8.746;2023-02-12T09:21:40;93143.84;;;2.56;51.42
46778;BME280;32536;47.128;8.746;2023-02-12T09:24:07;93134.47;;;2.68;51.85
46778;BME280;32536;47.128;8.746;2023-02-12T09:26:34;93135.97;;;2.78;51.96
46778;BME280;32536;47.128;8.746;2023-02-12T09:29:02;93135.59;;;2.88;51.56
46778;BME280;32536;47.128;8.746;2023-02-12T09:31:30;93132.63;;;2.98;52.03
46778;BME280;32536;47.128;8.746;2023-02-12T09:34:03;93134.25;;;3.12;51.69
46778;BME280;32536;47.128;8.746;2023-02-12T09:36:31;93136.34;;;3.27;51.79
46778;BME280;32536;47.128;8.746;2023-02-12T09:38:58;93126.47;;;3.36;51.94
46778;BME280;32536;47.128;8.746;2023-02-12T09:45:41;93128.69;;;3.56;51.32
46778;BME280;32536;47.128;8.746;2023-02-12T09:50:59;93125.56;;;3.75;51.45
46778;BME280;32536;47.128;8.746;2023-02-12T09:53:35;93122.41;;;3.81;51.67
46778;BME280;32536;47.128;8.746;2023-02-12T09:56:14;93125.78;;;3.91;51.22
46778;BME280;32536;47.128;8.746;2023-02-12T09:58:50;93121.94;;;4.00;51.69
46778;BME280;32536;47.128;8.746;2023-02-12T10:01:20;93124.97;;;4.11;51.46
46778;BME280;32536;47.128;8.746;2023-02-12T10:03:51;93127.84;;;4.19;51.27
46778;BME280;32536;47.128;8.746;2023-02-12T10:06:24;93123.69;;;4.30;51.59
46778;BME280;32536;47.128;8.746;2023-02-12T10:17:22;93116.38;;;4.85;50.97
46778;BME280;32536;47.128;8.746;2023-02-12T10:25:48;93122.69;;;5.18;51.23
46778;BME280;32536;47.128;8.746;2023-02-12T10:28:25;93119.09;;;5.26;51.45
46778;BME280;32536;47.128;8.746;2023-02-12T10:31:02;93122.31;;;5.32;52.08
46778;BME280;32536;47.128;8.746;2023-02-12T10:33:41;93112.03;;;5.30;51.81
46778;BME280;32536;47.128;8.746;2023-02-12T10:36:42;93122.78;;;5.34;52.02
46778;BME280;32536;47.128;8.746;2023-02-12T10:41:44;93108.59;;;5.29;52.02
46778;BME280;32536;47.128;8.746;2023-02-12T10:44:28;93113.13;;;5.29;51.83
46778;BME280;32536;47.128;8.746;2023-02-12T10:46:55;93109.28;;;5.26;52.16
46778;BME280;32536;47.128;8.746;2023-02-12T10:49:22;93105.06;;;5.25;52.33
46778;BME280;32536;47.128;8.746;2023-02-12T10:51:57;93107.06;;;5.28;52.35
46778;BME280;32536;47.128;8.746;2023-02-12T10:54:48;93103.38;;;5.33;52.42
46778;BME280;32536;47.128;8.746;2023-02-12T10:57:23;93100.06;;;5.36;52.30
46778;BME280;32536;47.128;8.746;2023-02-12T10:59:55;93096.72;;;5.39;52.26
46778;BME280;32536;47.128;8.746;2023-02-12T11:02:39;93091.19;;;5.44;52.40
46778;BME280;32536;47.128;8.746;2023-02-12T11:05:22;93081.00;;;5.47;52.33
46778;BME280;32536;47.128;8.746;2023-02-12T11:07:51;93087.84;;;5.48;52.35
46778;BME280;32536;47.128;8.746;2023-02-12T11:12:58;93086.50;;;5.54;52.53
46778;BME280;32536;47.128;8.746;2023-02-12T11:15:28;93082.09;;;5.58;52.56
46778;BME280;32536;47.128;8.746;2023-02-12T11:18:30;93082.84;;;5.58;52.08
46778;BME280;32536;47.128;8.746;2023-02-12T11:21:09;93082.50;;;5.60;52.27
46778;BME280;32536;47.128;8.746;2023-02-12T11:23:43;93079.63;;;5.65;52.27
46778;BME280;32536;47.128;8.746;2023-02-12T11:29:19;93083.00;;;5.78;51.95
46778;BME280;32536;47.128;8.746;2023-02-12T11:32:00;93082.44;;;5.85;51.96
46778;BME280;32536;47.128;8.746;2023-02-12T11:34:29;93076.44;;;5.88;52.42
46778;BME280;32536;47.128;8.746;2023-02-12T11:36:56;93076.78;;;5.86;52.19
46778;BME280;32536;47.128;8.746;2023-02-12T11:39:37;93079.78;;;5.85;52.26
46778;BME280;32536;47.128;8.746;2023-02-12T11:42:14;93080.19;;;5.87;52.03
46778;BME280;32536;47.128;8.746;2023-02-12T11:44:56;93077.22;;;5.88;52.50
46778;BME280;32536;47.128;8.746;2023-02-12T11:47:25;93077.97;;;5.89;52.52
46778;BME280;32536;47.128;8.746;2023-02-12T11:50:14;93069.34;;;5.92;51.95
46778;BME280;32536;47.128;8.746;2023-02-12T11:52:50;93072.06;;;5.96;52.56
46778;BME280;32536;47.128;8.746;2023-02-12T11:55:32;93072.50;;;5.98;52.50
46778;BME280;32536;47.128;8.746;2023-02-12T11:58:14;93068.88;;;6.02;51.87
46778;BME280;32536;47.128;8.746;2023-02-12T12:00:48;93067.41;;;6.05;52.46
46778;BME280;32536;47.128;8.746;2023-02-12T12:03:36;93058.22;;;6.02;51.90
46778;BME280;32536;47.128;8.746;2023-02-12T12:06:25;93064.75;;;6.05;52.03
46778;BME280;32536;47.128;8.746;2023-02-12T12:15:16;93054.38;;;6.16;51.62
46778;BME280;32536;47.128;8.746;2023-02-12T12:18:31;93046.94;;;6.21;51.53
46778;BME280;32536;47.128;8.746;2023-02-12T12:24:20;93041.53;;;6.34;51.92
46778;BME280;32536;47.128;8.746;2023-02-12T12:27:14;93045.06;;;6.38;51.50
46778;BME280;32536;47.128;8.746;2023-02-12T12:30:25;93037.41;;;6.52;51.76
46778;BME280;32536;47.128;8.746;2023-02-12T12:33:45;93044.78;;;6.59;51.91
46778;BME280;32536;47.128;8.746;2023-02-12T12:56:33;93028.13;;;7.14;51.18
46778;BME280;32536;47.128;8.746;2023-02-12T13:08:04;93039.91;;;7.29;51.24
46778;BME280;32536;47.128;8.746;2023-02-12T13:13:31;93046.84;;;7.33;49.94
46778;BME280;32536;47.128;8.746;2023-02-12T13:24:57;93047.75;;;7.21;51.20
46778;BME280;32536;47.128;8.746;2023-02-12T13:27:42;93046.72;;;7.10;51.67
46778;BME280;32536;47.128;8.746;2023-02-12T13:33:15;93032.78;;;7.17;51.47
46778;BME280;32536;47.128;8.746;2023-02-12T13:35:48;93036.44;;;7.28;51.35
46778;BME280;32536;47.128;8.746;2023-02-12T13:38:24;93035.91;;;7.39;51.44
46778;BME280;32536;47.128;8.746;2023-02-12T13:41:00;93036.09;;;7.49;51.01
46778;BME280;32536;47.128;8.746;2023-02-12T13:51:52;93035.13;;;7.97;51.91
46778;BME280;32536;47.128;8.746;2023-02-12T13:57:25;93033.38;;;8.05;51.71
46778;BME280;32536;47.128;8.746;2023-02-12T13:59:53;93032.72;;;8.11;51.65
46778;BME280;32536;47.128;8.746;2023-02-12T14:07:49;93033.47;;;8.31;51.67
46778;BME280;32536;47.128;8.746;2023-02-12T14:10:27;93030.84;;;8.35;51.24
46778;BME280;32536;47.128;8.746;2023-02-12T14:15:54;93038.34;;;8.49;50.87
46778;BME280;32536;47.128;8.746;2023-02-12T14:23:39;93036.34;;;8.65;51.81
46778;BME280;32536;47.128;8.746;2023-02-12T14:26:09;93037.97;;;8.74;52.05
46778;BME280;32536;47.128;8.746;2023-02-12T14:28:58;93033.44;;;8.74;50.62
46778;BME280;32536;47.128;8.746;2023-02-12T14:31:34;93031.94;;;8.77;51.50
46778;BME280;32536;47.128;8.746;2023-02-12T14:41:53;93038.69;;;8.94;51.61
46778;BME280;32536;47.128;8.746;2023-02-12T14:49:37;93041.47;;;9.01;51.24
46778;BME280;32536;47.128;8.746;2023-02-12T14:54:42;93050.25;;;9.02;51.34
46778;BME280;32536;47.128;8.746;2023-02-12T14:57:26;93054.41;;;8.99;51.17
46778;BME280;32536;47.128;8.746;2023-02-12T14:59:58;93053.13;;;8.89;51.51
46778;BME280;32536;47.128;8.746;2023-02-12T15:02:45;93053.47;;;8.88;51.12
46778;BME280;32536;47.128;8.746;2023-02-12T15:05:29;93048.84;;;8.85;51.75
46778;BME280;32536;47.128;8.746;2023-02-12T15:08:31;93054.50;;;8.79;50.49
46778;BME280;32536;47.128;8.746;2023-02-12T15:11:19;93058.22;;;8.75;51.00
46778;BME280;32536;47.128;8.746;2023-02-12T15:13:52;93059.03;;;8.75;51.47
46778;BME280;32536;47.128;8.746;2023-02-12T15:16:33;93062.75;;;8.71;50.65
46778;BME280;32536;47.128;8.746;2023-02-12T15:19:57;93069.22;;;8.70;50.02
46778;BME280;32536;47.128;8.746;2023-02-12T15:22:54;93067.78;;;8.76;50.09
46778;BME280;32536;47.128;8.746;2023-02-12T15:25:28;93058.34;;;8.82;51.21
46778;BME280;32536;47.128;8.746;2023-02-12T15:28:03;93063.03;;;8.89;51.26
46778;BME280;32536;47.128;8.746;2023-02-12T15:30:44;93056.22;;;8.91;51.15
46778;BME280;32536;47.128;8.746;2023-02-12T15:33:20;93057.97;;;8.84;50.53
46778;BME280;32536;47.128;8.746;2023-02-12T15:35:53;93065.94;;;8.80;51.59
46778;BME280;32536;47.128;8.746;2023-02-12T15:38:27;93060.59;;;8.80;51.04
46778;BME280;32536;47.128;8.746;2023-02-12T15:41:01;93055.69;;;8.82;51.43
46778;BME280;32536;47.128;8.746;2023-02-12T15:43:31;93061.06;;;8.86;51.23
46778;BME280;32536;47.128;8.746;2023-02-12T15:46:19;93053.06;;;8.86;51.43
46778;BME280;32536;47.128;8.746;2023-02-12T15:48:46;93053.84;;;8.86;51.52
46778;BME280;32536;47.128;8.746;2023-02-12T15:51:19;93056.84;;;8.85;51.43
46778;BME280;32536;47.128;8.746;2023-02-12T15:53:57;93056.03;;;8.80;51.46
46778;BME280;32536;47.128;8.746;2023-02-12T15:56:25;93059.84;;;8.79;51.53
46778;BME280;32536;47.128;8.746;2023-02-12T15:58:55;93063.94;;;8.73;50.54
46778;BME280;32536;47.128;8.746;2023-02-12T16:01:26;93063.13;;;8.69;51.22
46778;BME280;32536;47.128;8.746;2023-02-12T16:03:59;93066.06;;;8.64;50.70
46778;BME280;32536;47.128;8.746;2023-02-12T16:06:30;93062.56;;;8.60;50.83
46778;BME280;32536;47.128;8.746;2023-02-12T16:09:07;93068.97;;;8.55;50.64
46778;BME280;32536;47.128;8.746;2023-02-12T16:11:43;93057.47;;;8.51;51.45
46778;BME280;32536;47.128;8.746;2023-02-12T16:14:26;93060.75;;;8.44;48.67
46778;BME280;32536;47.128;8.746;2023-02-12T16:22:26;93071.00;;;8.19;49.87
46778;BME280;32536;47.128;8.746;2023-02-12T16:24:54;93071.63;;;8.12;50.61
46778;BME280;32536;47.128;8.746;2023-02-12T16:27:28;93077.56;;;8.02;48.32
46778;BME280;32536;47.128;8.746;2023-02-12T16:30:01;93071.66;;;7.93;49.85
46778;BME280;32536;47.128;8.746;2023-02-12T16:42:54;93085.66;;;7.50;50.66